Terminal Aerodrome Forecast
Issued by NWS

Home | Current Version | Previous Version | Text Only | Print | Product List | Glossary On
Versions: 1 2 3 4 5 6 7 8 9 10 11 12 13 14 15 16
678
FTUS44 KBMX 242347
TAFTCL
TAF
KTCL 242347Z 2500/2524 20009KT P6SM SCT050
     FM250600 26010G20KT P6SM VCTS BKN025 OVC040CB
      TEMPO 2506/2509 VRB10G20KT 4SM SHRA BKN015 OVC040
     FM250900 33013KT P6SM SCT040 SCT250
     FM251500 31011KT P6SM SKC=

USA.gov is the U.S. government's official web portal to all federal, state and local government web resources and services.